Observation data for Aspermont on 03/23/2019      Previous  Date  Next       Current Mesonet Observations  Soil Data  Daily Summary Page  Observations in Plain Language
KASR 230500Z 15012KT 17/11 A2996 RMK A01 T01720112  RH  069%=      5-min Rain = 0
KASR 230505Z 15010KT 17/11 A2996 RMK A01 T01720112  RH  069%=      5-min Rain = 0
KASR 230510Z 15011KT 17/11 A2996 RMK A01 T01710113  RH  070%=      5-min Rain = 0
KASR 230515Z 15011KT 17/11 A2996 RMK A01 T01700112  RH  070%=      5-min Rain = 0
KASR 230520Z 15010KT 17/11 A2996 RMK A01 T01690112  RH  071%=      5-min Rain = 0
KASR 230525Z 16010KT 17/11 A2996 RMK A01 T01680112  RH  071%=      5-min Rain = 0
KASR 230530Z 16009KT 17/11 A2996 RMK A01 T01660113  RH  072%=      5-min Rain = 0
KASR 230535Z 16009KT 17/11 A2996 RMK A01 T01650112  RH  072%=      5-min Rain = 0
KASR 230540Z 16009KT 16/11 A2996 RMK A01 T01640113  RH  073%=      5-min Rain = 0
KASR 230545Z 16009KT 16/11 A2996 RMK A01 T01630112  RH  073%=      5-min Rain = 0
KASR 230550Z 16009KT 16/11 A2996 RMK A01 T01610112  RH  074%=      5-min Rain = 0
KASR 230555Z 16009KT 16/11 A2996 RMK A01 T01610112  RH  074%=      5-min Rain = 0
KASR 230600Z 16009KT 16/11 A2995 RMK A01 T01600112  RH  075%=      5-min Rain = 0
KASR 230605Z 16010KT 16/11 A2995 RMK A01 T01600112  RH  075%=      5-min Rain = 0
KASR 230610Z 16010KT 16/11 A2995 RMK A01 T01600112  RH  075%=      5-min Rain = 0
KASR 230615Z 16010KT 16/11 A2995 RMK A01 T01590113  RH  075%=      5-min Rain = 0
KASR 230620Z 16010KT 16/11 A2995 RMK A01 T01600113  RH  075%=      5-min Rain = 0
KASR 230625Z 17010KT 16/11 A2995 RMK A01 T01600113  RH  075%=      5-min Rain = 0
KASR 230630Z 16010KT 16/11 A2995 RMK A01 T01590113  RH  075%=      5-min Rain = 0
KASR 230635Z 17010KT 16/11 A2994 RMK A01 T01580113  RH  076%=      5-min Rain = 0
KASR 230640Z 17010KT 16/11 A2994 RMK A01 T01560113  RH  077%=      5-min Rain = 0
KASR 230645Z 17010KT 16/11 A2994 RMK A01 T01560113  RH  077%=      5-min Rain = 0
KASR 230650Z 17009KT 16/11 A2994 RMK A01 T01560113  RH  077%=      5-min Rain = 0
KASR 230655Z 17009KT 15/11 A2994 RMK A01 T01540112  RH  078%=      5-min Rain = 0
KASR 230700Z 17010KT 15/11 A2994 RMK A01 T01530112  RH  078%=      5-min Rain = 0
KASR 230705Z 17009KT 15/11 A2994 RMK A01 T01520112  RH  078%=      5-min Rain = 0
KASR 230710Z 17010KT 15/11 A2994 RMK A01 T01520112  RH  079%=      5-min Rain = 0
KASR 230715Z 17010KT 15/11 A2994 RMK A01 T01510112  RH  079%=      5-min Rain = 0
KASR 230720Z 17010KT 15/11 A2994 RMK A01 T01510112  RH  079%=      5-min Rain = 0
KASR 230725Z 17011KT 15/11 A2994 RMK A01 T01510113  RH  079%=      5-min Rain = 0
KASR 230730Z 17010KT 15/11 A2994 RMK A01 T01540114  RH  078%=      5-min Rain = 0
KASR 230735Z 17010KT 15/11 A2993 RMK A01 T01540114  RH  079%=      5-min Rain = 0
KASR 230740Z 17010KT 15/12 A2993 RMK A01 T01540115  RH  079%=      5-min Rain = 0
KASR 230745Z 18011KT 16/12 A2993 RMK A01 T01550115  RH  078%=      5-min Rain = 0
KASR 230750Z 18011G16KT 16/12 A2993 RMK A01 T01560116  RH  078%=      5-min Rain = 0
KASR 230755Z 18011KT 16/12 A2993 RMK A01 T01570116  RH  078%=      5-min Rain = 0
KASR 230800Z 18010KT 16/12 A2994 RMK A01 T01560116  RH  079%=      5-min Rain = 0
KASR 230805Z 18010KT 16/12 A2994 RMK A01 T01550116  RH  079%=      5-min Rain = 0
KASR 230810Z 18009KT 15/12 A2994 RMK A01 T01540116  RH  080%=      5-min Rain = 0
KASR 230815Z 19008KT 15/12 A2994 RMK A01 T01530116  RH  080%=      5-min Rain = 0
KASR 230820Z 20006KT 15/12 A2994 RMK A01 T01530115  RH  080%=      5-min Rain = 0
KASR 230825Z 21005KT 15/12 A2994 RMK A01 T01510115  RH  081%=      5-min Rain = 0
KASR 230830Z 23004KT 15/11 A2994 RMK A01 T01470112  RH  081%=      5-min Rain = 0
KASR 230835Z 27003KT 14/11 A2994 RMK A01 T01400109  RH  083%=      5-min Rain = 0
KASR 230840Z 27003KT 13/11 A2994 RMK A01 T01330106  RH  085%=      5-min Rain = 0
KASR 230845Z 28002KT 13/11 A2994 RMK A01 T01330108  RH  086%=      5-min Rain = 0
KASR 230850Z 29003KT 13/11 A2994 RMK A01 T01320107  RH  086%=      5-min Rain = 0
KASR 230855Z 28002KT 13/11 A2994 RMK A01 T01330109  RH  087%=      5-min Rain = 0
KASR 230900Z 26002KT 14/11 A2994 RMK A01 T01360110  RH  086%=      5-min Rain = 0
KASR 230905Z 24002KT 14/11 A2994 RMK A01 T01360108  RH  085%=      5-min Rain = 0
KASR 230910Z 25002KT 14/11 A2994 RMK A01 T01350108  RH  086%=      5-min Rain = 0
KASR 230915Z 26003KT 14/11 A2994 RMK A01 T01370110  RH  085%=      5-min Rain = 0
KASR 230920Z 25002KT 14/11 A2994 RMK A01 T01360109  RH  085%=      5-min Rain = 0
KASR 230925Z 22002KT 14/11 A2994 RMK A01 T01350109  RH  086%=      5-min Rain = 0
KASR 230930Z 22004KT 14/11 A2994 RMK A01 T01410112  RH  084%=      5-min Rain = 0
KASR 230935Z 22004KT 15/11 A2994 RMK A01 T01480114  RH  081%=      5-min Rain = 0
KASR 230940Z 20005KT 15/11 A2993 RMK A01 T01470113  RH  081%=      5-min Rain = 0
KASR 230945Z 19006KT 15/11 A2993 RMK A01 T01460114  RH  083%=      5-min Rain = 0
KASR 230950Z 20006KT 15/11 A2993 RMK A01 T01450113  RH  083%=      5-min Rain = 0
KASR 230955Z 19006KT 14/11 A2993 RMK A01 T01420113  RH  084%=      5-min Rain = 0
KASR 231000Z 18007KT 14/11 A2993 RMK A01 T01390112  RH  085%=      5-min Rain = 0
KASR 231005Z 17008KT 14/11 A2992 RMK A01 T01390112  RH  085%=      5-min Rain = 0
KASR 231010Z 17008KT 14/11 A2992 RMK A01 T01410113  RH  085%=      5-min Rain = 0
KASR 231015Z 18008KT 14/12 A2992 RMK A01 T01430115  RH  085%=      5-min Rain = 0
KASR 231020Z 17008KT 14/12 A2992 RMK A01 T01440116  RH  085%=      5-min Rain = 0
KASR 231025Z 17007KT 15/12 A2992 RMK A01 T01450115  RH  084%=      5-min Rain = 0
KASR 231030Z 17007KT 14/11 A2993 RMK A01 T01420114  RH  085%=      5-min Rain = 0
KASR 231035Z 18007KT 14/12 A2993 RMK A01 T01410115  RH  086%=      5-min Rain = 0
KASR 231040Z 18007KT 14/11 A2993 RMK A01 T01410114  RH  086%=      5-min Rain = 0
KASR 231045Z 18007KT 14/11 A2993 RMK A01 T01380113  RH  086%=      5-min Rain = 0
KASR 231050Z 18007KT 14/11 A2993 RMK A01 T01360112  RH  087%=      5-min Rain = 0
KASR 231055Z 18007KT 13/11 A2993 RMK A01 T01320110  RH  088%=      5-min Rain = 0
KASR 231100Z 19007KT 13/11 A2993 RMK A01 T01300109  RH  089%=      5-min Rain = 0
KASR 231105Z 20006KT 13/11 A2993 RMK A01 T01290110  RH  090%=      5-min Rain = 0
KASR 231110Z 22006KT 13/11 A2994 RMK A01 T01290110  RH  090%=      5-min Rain = 0
KASR 231115Z 22006KT 13/11 A2994 RMK A01 T01260107  RH  090%=      5-min Rain = 0
KASR 231120Z 21006KT 12/11 A2994 RMK A01 T01240106  RH  091%=      5-min Rain = 0
KASR 231125Z 21005KT 13/11 A2994 RMK A01 T01250109  RH  091%=      5-min Rain = 0
KASR 231130Z 22005KT 13/11 A2994 RMK A01 T01290111  RH  091%=      5-min Rain = 0
KASR 231135Z 25004KT 12/10 A2995 RMK A01 T01230103  RH  089%=      5-min Rain = 0
KASR 231140Z 25003KT 12/10 A2995 RMK A01 T01180102  RH  091%=      5-min Rain = 0
KASR 231145Z 26003KT 12/10 A2995 RMK A01 T01170103  RH  092%=      5-min Rain = 0
KASR 231150Z 30003KT 11/10 A2995 RMK A01 T01140100  RH  093%=      5-min Rain = 0
KASR 231155Z 31005KT 11/10 A2996 RMK A01 T01100098  RH  094%=      5-min Rain = 0
KASR 231200Z 32006KT 11/10 A2996 RMK A01 T01100100  RH  095%=      5-min Rain = 0
KASR 231205Z 31005KT 12/11 A2996 RMK A01 T01170108  RH  096%=      5-min Rain = 0
KASR 231210Z 29005KT 13/11 A2997 RMK A01 T01250114  RH  095%=      5-min Rain = 0
KASR 231215Z 27005KT 13/11 A2997 RMK A01 T01280114  RH  093%=      5-min Rain = 0
KASR 231220Z 25005KT 13/12 A2997 RMK A01 T01310116  RH  092%=      5-min Rain = 0
KASR 231225Z 25005KT 13/12 A2997 RMK A01 T01320116  RH  092%=      5-min Rain = 0
KASR 231230Z 23004KT 13/12 A2996 RMK A01 T01330116  RH  091%=      5-min Rain = 0
KASR 231235Z 23004KT 13/11 A2997 RMK A01 T01310114  RH  091%=      5-min Rain = 0
KASR 231240Z 22003KT 13/11 A2997 RMK A01 T01290112  RH  091%=      5-min Rain = 0
KASR 231245Z 21003KT 13/11 A2997 RMK A01 T01260110  RH  091%=      5-min Rain = 0
KASR 231250Z 21004KT 13/11 A2997 RMK A01 T01250110  RH  092%=      5-min Rain = 0
KASR 231255Z 21004KT 12/11 A2997 RMK A01 T01240110  RH  092%=      5-min Rain = 0
KASR 231300Z 22005KT 12/11 A2998 RMK A01 T01240110  RH  092%=      5-min Rain = 0
KASR 231305Z 22005KT 12/11 A2998 RMK A01 T01240109  RH  092%=      5-min Rain = 0
KASR 231310Z 23004KT 13/11 A2998 RMK A01 T01250111  RH  093%=      5-min Rain = 0
KASR 231315Z 24004KT 13/11 A2998 RMK A01 T01270112  RH  092%=      5-min Rain = 0
KASR 231320Z 22003KT 13/11 A2999 RMK A01 T01280112  RH  092%=      5-min Rain = 0
KASR 231325Z 20004KT 13/11 A2998 RMK A01 T01280112  RH  092%=      5-min Rain = 0
KASR 231330Z 19005KT 13/11 A2999 RMK A01 T01270112  RH  092%=      5-min Rain = 0
KASR 231335Z 18006KT 13/12 A2999 RMK A01 T01300116  RH  092%=      5-min Rain = 0
KASR 231340Z 18006KT 14/12 A2998 RMK A01 T01360119  RH  091%=      5-min Rain = 0
KASR 231345Z 18005KT 14/12 A2999 RMK A01 T01410122  RH  090%=      5-min Rain = 0
KASR 231350Z 19004KT 15/12 A2999 RMK A01 T01460124  RH  089%=      5-min Rain = 0
KASR 231355Z 18003KT 15/13 A2999 RMK A01 T01490126  RH  087%=      5-min Rain = 0
KASR 231400Z 17004KT 15/13 A2999 RMK A01 T01520126  RH  086%=      5-min Rain = 0
KASR 231405Z 17005KT 15/13 A2999 RMK A01 T01540127  RH  085%=      5-min Rain = 0
KASR 231410Z 19003KT 16/13 A30 RMK A01 T01570129  RH  085%=      5-min Rain = 0
KASR 231415Z 19005KT 16/13 A30 RMK A01 T01600130  RH  084%=      5-min Rain = 0
KASR 231420Z 19006KT 16/13 A30 RMK A01 T01630131  RH  083%=      5-min Rain = 0
KASR 231425Z 20006KT 17/13 A30 RMK A01 T01650132  RH  082%=      5-min Rain = 0
KASR 231430Z 21005KT 17/13 A30 RMK A01 T01660132  RH  082%=      5-min Rain = 0
KASR 231435Z 21007KT 17/13 A30 RMK A01 T01700134  RH  081%=      5-min Rain = 0
KASR 231440Z 22009KT 18/14 A30 RMK A01 T01750136  RH  079%=      5-min Rain = 0
KASR 231445Z 22010KT 18/14 A30 RMK A01 T01770136  RH  078%=      5-min Rain = 0
KASR 231450Z 22011KT 18/14 A30 RMK A01 T01780135  RH  077%=      5-min Rain = 0
KASR 231455Z 23013KT 18/14 A30 RMK A01 T01810135  RH  076%=      5-min Rain = 0
KASR 231500Z 24011KT 18/14 A30 RMK A01 T01830136  RH  076%=      5-min Rain = 0
KASR 231505Z 23012G17KT 19/14 A30 RMK A01 T01860137  RH  075%=      5-min Rain = 0
KASR 231510Z 23012G17KT 19/14 A30 RMK A01 T01870136  RH  074%=      5-min Rain = 0
KASR 231515Z 24012KT 19/14 A30 RMK A01 T01900138  RH  073%=      5-min Rain = 0
KASR 231520Z 22013G18KT 19/14 A30 RMK A01 T01930137  RH  071%=      5-min Rain = 0
KASR 231525Z 23015G20KT 19/13 A30 RMK A01 T01930134  RH  070%=      5-min Rain = 0
KASR 231530Z 24014G19KT 19/13 A30 RMK A01 T01940131  RH  068%=      5-min Rain = 0
KASR 231535Z 23013G21KT 20/13 A30 RMK A01 T01960132  RH  068%=      5-min Rain = 0
KASR 231540Z 24014KT 20/13 A30 RMK A01 T01970130  RH  067%=      5-min Rain = 0
KASR 231545Z 23013KT 20/13 A30 RMK A01 T01990126  RH  064%=      5-min Rain = 0
KASR 231550Z 23013G18KT 20/13 A30 RMK A01 T02000125  RH  063%=      5-min Rain = 0
KASR 231555Z 23013KT 20/12 A30 RMK A01 T02020122  RH  062%=      5-min Rain = 0
KASR 231600Z 24012KT 20/12 A30 RMK A01 T02040115  RH  058%=      5-min Rain = 0
KASR 231605Z 23011G16KT 21/11 A30 RMK A01 T02080112  RH  055%=      5-min Rain = 0
KASR 231610Z 24012KT 21/10 A30 RMK A01 T02100103  RH  051%=      5-min Rain = 0
KASR 231615Z 24010G16KT 21/10 A30 RMK A01 T02090100  RH  051%=      5-min Rain = 0
KASR 231620Z 25011G17KT 21/09 A30 RMK A01 T02090092  RH  048%=      5-min Rain = 0
KASR 231625Z 25011G16KT 21/09 A30 RMK A01 T02120085  RH  045%=      5-min Rain = 0
KASR 231630Z 25012KT 21/09 A30 RMK A01 T02140085  RH  044%=      5-min Rain = 0
KASR 231635Z 25011KT 21/08 A30 RMK A01 T02130083  RH  044%=      5-min Rain = 0
KASR 231640Z 26010KT 22/07 A30 RMK A01 T02150073  RH  041%=      5-min Rain = 0
KASR 231645Z 26010KT 22/07 A30 RMK A01 T02180070  RH  039%=      5-min Rain = 0
KASR 231650Z 27010KT 22/05 A2999 RMK A01 T02190052  RH  034%=      5-min Rain = 0
KASR 231655Z 26010KT 22/06 A2999 RMK A01 T02190058  RH  036%=      5-min Rain = 0
KASR 231700Z 25009KT 22/04 A30 RMK A01 T02190040  RH  031%=      5-min Rain = 0
KASR 231705Z 26008G14KT 22/05 A30 RMK A01 T02180049  RH  033%=      5-min Rain = 0
KASR 231710Z 26010G17KT 22/05 A30 RMK A01 T02200052  RH  034%=      5-min Rain = 0
KASR 231715Z 25009KT 22/05 A30 RMK A01 T02210053  RH  034%=      5-min Rain = 0
KASR 231720Z 26010G15KT 23/05 A30 RMK A01 T02250053  RH  033%=      5-min Rain = 0
KASR 231725Z 25012G17KT 22/05 A2999 RMK A01 T02230045  RH  032%=      5-min Rain = 0
KASR 231730Z 26009G14KT 22/05 A2999 RMK A01 T02230052  RH  033%=      5-min Rain = 0
KASR 231735Z 26010KT 23/05 A2999 RMK A01 T02260053  RH  033%=      5-min Rain = 0
KASR 231740Z 24012KT 23/05 A2999 RMK A01 T02270046  RH  031%=      5-min Rain = 0
KASR 231745Z 23012KT 23/04 A2999 RMK A01 T02260037  RH  029%=      5-min Rain = 0
KASR 231750Z 23010G15KT 23/04 A2999 RMK A01 T02290043  RH  030%=      5-min Rain = 0
KASR 231755Z 24013KT 23/03 A2998 RMK A01 T02250033  RH  029%=      5-min Rain = 0
KASR 231800Z 25010KT 23/04 A2998 RMK A01 T02270042  RH  030%=      5-min Rain = 0
KASR 231805Z 25010G15KT 23/04 A2998 RMK A01 T02270040  RH  030%=      5-min Rain = 0
KASR 231810Z 24010G15KT 23/05 A2998 RMK A01 T02300045  RH  030%=      5-min Rain = 0
KASR 231815Z 25010KT 23/04 A2998 RMK A01 T02310041  RH  029%=      5-min Rain = 0
KASR 231820Z 25012KT 23/04 A2997 RMK A01 T02320041  RH  029%=      5-min Rain = 0
KASR 231825Z 24008G13KT 23/04 A2997 RMK A01 T02310038  RH  029%=      5-min Rain = 0
KASR 231830Z 23009KT 24/04 A2997 RMK A01 T02350042  RH  029%=      5-min Rain = 0
KASR 231835Z 26011KT 24/04 A2997 RMK A01 T02360038  RH  028%=      5-min Rain = 0
KASR 231840Z 24010G16KT 24/03 A2997 RMK A01 T02360033  RH  027%=      5-min Rain = 0
KASR 231845Z 23011G17KT 24/04 A2996 RMK A01 T02380041  RH  028%=      5-min Rain = 0
KASR 231850Z 25009G14KT 24/04 A2996 RMK A01 T02370035  RH  027%=      5-min Rain = 0
KASR 231855Z 25010G15KT 24/04 A2996 RMK A01 T02400040  RH  028%=      5-min Rain = 0
KASR 231900Z 25009G14KT 24/04 A2996 RMK A01 T02420043  RH  028%=      5-min Rain = 0
KASR 231905Z 23010G15KT 25/04 A2996 RMK A01 T02450041  RH  027%=      5-min Rain = 0
KASR 231910Z 23010KT 24/04 A2996 RMK A01 T02440040  RH  027%=      5-min Rain = 0
KASR 231915Z 23012KT 24/03 A2996 RMK A01 T02430029  RH  025%=      5-min Rain = 0
KASR 231920Z 25008G13KT 24/03 A2995 RMK A01 T02420030  RH  025%=      5-min Rain = 0
KASR 231925Z 23007G12KT 24/03 A2995 RMK A01 T02440032  RH  026%=      5-min Rain = 0
KASR 231930Z 24008KT 25/03 A2995 RMK A01 T02470034  RH  025%=      5-min Rain = 0
KASR 231935Z 23011G18KT 25/03 A2995 RMK A01 T02480031  RH  025%=      5-min Rain = 0
KASR 231940Z 23009G14KT 25/02 A2994 RMK A01 T02460024  RH  024%=      5-min Rain = 0
KASR 231945Z 23009KT 25/02 A2994 RMK A01 T02470020  RH  023%=      5-min Rain = 0
KASR 231950Z 23012G17KT 25/02 A2994 RMK A01 T02510018  RH  022%=      5-min Rain = 0
KASR 231955Z 25012G17KT 25/01 A2994 RMK A01 T02500011  RH  021%=      5-min Rain = 0
KASR 232000Z 26008G13KT 25/01 A2994 RMK A01 T02480011  RH  021%=      5-min Rain = 0
KASR 232005Z 25012KT 25/00 A2993 RMK A01 T02520004  RH  020%=      5-min Rain = 0
KASR 232010Z 25011KT 25/00 A2993 RMK A01 T02540003  RH  020%=      5-min Rain = 0
KASR 232015Z 25010G18KT 25/M00 A2993 RMK A01 T02521002  RH  019%=      5-min Rain = 0
KASR 232020Z 22012KT 25/00 A2993 RMK A01 T025200-0  RH  019%=      5-min Rain = 0
KASR 232025Z 22013KT 25/00 A2993 RMK A01 T02530000  RH  019%=      5-min Rain = 0
KASR 232030Z 21012KT 25/00 A2993 RMK A01 T02540001  RH  019%=      5-min Rain = 0
KASR 232035Z 22013G19KT 25/M00 A2993 RMK A01 T02531002  RH  019%=      5-min Rain = 0
KASR 232040Z 21011KT 26/01 A2992 RMK A01 T02560009  RH  020%=      5-min Rain = 0
KASR 232045Z 23010G18KT 26/01 A2992 RMK A01 T02560007  RH  020%=      5-min Rain = 0
KASR 232050Z 23012G18KT 26/00 A2992 RMK A01 T02560000  RH  019%=      5-min Rain = 0
KASR 232055Z 24012G17KT 26/00 A2992 RMK A01 T02570003  RH  019%=      5-min Rain = 0
KASR 232100Z 24014G19KT 26/M01 A2992 RMK A01 T02551005  RH  018%=      5-min Rain = 0
KASR 232105Z 25016G21KT 26/M01 A2992 RMK A01 T02551013  RH  017%=      5-min Rain = 0
KASR 232110Z 25013KT 25/M01 A2992 RMK A01 T02531013  RH  017%=      5-min Rain = 0
KASR 232115Z 24015G21KT 25/M00 A2992 RMK A01 T02521004  RH  019%=      5-min Rain = 0
KASR 232120Z 23012KT 25/M01 A2992 RMK A01 T02501007  RH  019%=      5-min Rain = 0
KASR 232125Z 25012G17KT 26/M00 A2992 RMK A01 T02561001  RH  019%=      5-min Rain = 0
KASR 232130Z 26011G26KT 25/M01 A2992 RMK A01 T02541005  RH  018%=      5-min Rain = 0
KASR 232135Z 25013G19KT 25/M01 A2992 RMK A01 T02511010  RH  018%=      5-min Rain = 0
KASR 232140Z 25011G16KT 25/M01 A2992 RMK A01 T02491009  RH  018%=      5-min Rain = 0
KASR 232145Z 25013G20KT 25/M01 A2992 RMK A01 T02481006  RH  019%=      5-min Rain = 0
KASR 232150Z 25011KT 25/M00 A2992 RMK A01 T02491002  RH  019%=      5-min Rain = 0
KASR 232155Z 23012KT 25/00 A2992 RMK A01 T025300-0  RH  019%=      5-min Rain = 0
KASR 232200Z 23014G20KT 25/M01 A2992 RMK A01 T02501006  RH  019%=      5-min Rain = 0
KASR 232205Z 24013G19KT 25/M01 A2992 RMK A01 T02471007  RH  019%=      5-min Rain = 0
KASR 232210Z 22013KT 25/M01 A2992 RMK A01 T02461005  RH  019%=      5-min Rain = 0
KASR 232215Z 22012KT 24/M01 A2992 RMK A01 T02441009  RH  019%=      5-min Rain = 0
KASR 232220Z 23012KT 24/M01 A2992 RMK A01 T02431008  RH  019%=      5-min Rain = 0
KASR 232225Z 22012KT 24/M01 A2992 RMK A01 T02421010  RH  019%=      5-min Rain = 0
KASR 232230Z 22011KT 24/M01 A2992 RMK A01 T02421007  RH  019%=      5-min Rain = 0
KASR 232235Z 22008KT 24/M00 A2992 RMK A01 T02431004  RH  020%=      5-min Rain = 0
KASR 232240Z 22011G17KT 25/M00 A2992 RMK A01 T02451003  RH  020%=      5-min Rain = 0
KASR 232245Z 22012KT 24/M01 A2992 RMK A01 T02441007  RH  019%=      5-min Rain = 0
KASR 232250Z 22010KT 25/M00 A2992 RMK A01 T02451002  RH  020%=      5-min Rain = 0
KASR 232255Z 22011G17KT 25/M00 A2992 RMK A01 T02461002  RH  020%=      5-min Rain = 0
KASR 232300Z 21012G20KT 24/M01 A2992 RMK A01 T02441006  RH  019%=      5-min Rain = 0
KASR 232305Z 22012KT 24/M01 A2992 RMK A01 T02421009  RH  019%=      5-min Rain = 0
KASR 232310Z 22012G18KT 24/M01 A2992 RMK A01 T02411010  RH  019%=      5-min Rain = 0
KASR 232315Z 22012G17KT 24/M01 A2992 RMK A01 T02401011  RH  019%=      5-min Rain = 0
KASR 232320Z 23012G17KT 24/M01 A2992 RMK A01 T02391009  RH  020%=      5-min Rain = 0
KASR 232325Z 22012G17KT 24/M01 A2992 RMK A01 T02401011  RH  019%=      5-min Rain = 0
KASR 232330Z 22012KT 24/M01 A2992 RMK A01 T02441012  RH  019%=      5-min Rain = 0
KASR 232335Z 22012KT 24/M01 A2992 RMK A01 T02431010  RH  019%=      5-min Rain = 0
KASR 232340Z 22011KT 24/M01 A2992 RMK A01 T02411012  RH  019%=      5-min Rain = 0
KASR 232345Z 22012KT 24/M01 A2992 RMK A01 T02391014  RH  019%=      5-min Rain = 0
KASR 232350Z 22010KT 24/M01 A2992 RMK A01 T02361012  RH  019%=      5-min Rain = 0
KASR 232355Z 21008KT 23/M01 A2992 RMK A01 T02341009  RH  020%=      5-min Rain = 0
KASR 240000Z 22007KT 23/M01 A2992 RMK A01 T02311009  RH  021%=      5-min Rain = 0
KASR 240005Z 22007KT 23/M01 A2992 RMK A01 T02281006  RH  021%=      5-min Rain = 0
KASR 240010Z 21006KT 23/M01 A2992 RMK A01 T02261005  RH  022%=      5-min Rain = 0
KASR 240015Z 21005KT 22/M00 A2992 RMK A01 T02241004  RH  022%=      5-min Rain = 0
KASR 240020Z 20005KT 22/00 A2992 RMK A01 T02200000  RH  023%=      5-min Rain = 0
KASR 240025Z 20005KT 22/00 A2992 RMK A01 T02150003  RH  025%=      5-min Rain = 0
KASR 240030Z 19005KT 21/00 A2992 RMK A01 T02120004  RH  025%=      5-min Rain = 0
KASR 240035Z 19005KT 21/01 A2992 RMK A01 T02090006  RH  026%=      5-min Rain = 0
KASR 240040Z 19006KT 20/01 A2992 RMK A01 T02040007  RH  027%=      5-min Rain = 0
KASR 240045Z 19007KT 20/01 A2992 RMK A01 T01990007  RH  028%=      5-min Rain = 0
KASR 240050Z 18008KT 20/01 A2991 RMK A01 T01960008  RH  029%=      5-min Rain = 0
KASR 240055Z 18008KT 20/01 A2991 RMK A01 T01950008  RH  029%=      5-min Rain = 0
KASR 240100Z 17007KT 20/01 A2991 RMK A01 T01950006  RH  029%=      5-min Rain = 0
KASR 240105Z 17007KT 20/01 A2991 RMK A01 T01950005  RH  028%=      5-min Rain = 0
KASR 240110Z 17007KT 19/01 A2991 RMK A01 T01930006  RH  029%=      5-min Rain = 0
KASR 240115Z 17007KT 19/01 A2991 RMK A01 T01910006  RH  029%=      5-min Rain = 0
KASR 240120Z 17007KT 19/00 A2991 RMK A01 T01890004  RH  029%=      5-min Rain = 0
KASR 240125Z 16007KT 19/00 A2991 RMK A01 T01860004  RH  030%=      5-min Rain = 0
KASR 240130Z 17007KT 18/00 A2992 RMK A01 T01810004  RH  031%=      5-min Rain = 0
KASR 240135Z 17007KT 18/01 A2992 RMK A01 T01780005  RH  031%=      5-min Rain = 0
KASR 240140Z 17007KT 18/00 A2992 RMK A01 T01770004  RH  031%=      5-min Rain = 0
KASR 240145Z 16007KT 18/00 A2992 RMK A01 T01750004  RH  032%=      5-min Rain = 0
KASR 240150Z 17007KT 17/01 A2992 RMK A01 T01730005  RH  033%=      5-min Rain = 0
KASR 240155Z 17007KT 17/01 A2993 RMK A01 T01720006  RH  033%=      5-min Rain = 0
KASR 240200Z 17007KT 17/01 A2993 RMK A01 T01690007  RH  034%=      5-min Rain = 0
KASR 240205Z 17007KT 17/01 A2993 RMK A01 T01670008  RH  035%=      5-min Rain = 0
KASR 240210Z 17007KT 17/01 A2993 RMK A01 T01650009  RH  035%=      5-min Rain = 0
KASR 240215Z 17007KT 16/01 A2993 RMK A01 T01630011  RH  036%=      5-min Rain = 0
KASR 240220Z 18008KT 16/01 A2994 RMK A01 T01620013  RH  037%=      5-min Rain = 0
KASR 240225Z 18008KT 16/02 A2994 RMK A01 T01620015  RH  037%=      5-min Rain = 0
KASR 240230Z 18008KT 16/02 A2994 RMK A01 T01630015  RH  037%=      5-min Rain = 0
KASR 240235Z 18007KT 16/02 A2994 RMK A01 T01620015  RH  038%=      5-min Rain = 0
KASR 240240Z 18008KT 16/02 A2995 RMK A01 T01590015  RH  038%=      5-min Rain = 0
KASR 240245Z 19008KT 15/02 A2995 RMK A01 T01540016  RH  040%=      5-min Rain = 0
KASR 240250Z 20008KT 15/02 A2995 RMK A01 T01510015  RH  040%=      5-min Rain = 0
KASR 240255Z 20008KT 15/01 A2996 RMK A01 T01520013  RH  040%=      5-min Rain = 0
KASR 240300Z 20008KT 15/01 A2996 RMK A01 T01540012  RH  039%=      5-min Rain = 0
KASR 240305Z 20007KT 16/01 A2996 RMK A01 T01550013  RH  039%=      5-min Rain = 0
KASR 240310Z 20007KT 16/01 A2996 RMK A01 T01550013  RH  038%=      5-min Rain = 0
KASR 240315Z 20008KT 16/01 A2996 RMK A01 T01590011  RH  037%=      5-min Rain = 0
KASR 240320Z 20008KT 16/01 A2996 RMK A01 T01600011  RH  037%=      5-min Rain = 0
KASR 240325Z 20007KT 16/01 A2997 RMK A01 T01610010  RH  037%=      5-min Rain = 0
KASR 240330Z 20007KT 16/01 A2997 RMK A01 T01600011  RH  037%=      5-min Rain = 0
KASR 240335Z 20008KT 16/01 A2997 RMK A01 T01600011  RH  037%=      5-min Rain = 0
KASR 240340Z 20008KT 16/01 A2997 RMK A01 T01600011  RH  037%=      5-min Rain = 0
KASR 240345Z 20008KT 16/01 A2997 RMK A01 T01600010  RH  037%=      5-min Rain = 0
KASR 240350Z 20008KT 16/01 A2997 RMK A01 T01580012  RH  038%=      5-min Rain = 0
KASR 240355Z 19008KT 15/01 A2997 RMK A01 T01500014  RH  040%=      5-min Rain = 0
KASR 240400Z 20008KT 15/02 A2997 RMK A01 T01470015  RH  041%=      5-min Rain = 0
KASR 240405Z 20008KT 15/02 A2997 RMK A01 T01460015  RH  041%=      5-min Rain = 0
KASR 240410Z 20007KT 15/02 A2997 RMK A01 T01450015  RH  042%=      5-min Rain = 0
KASR 240415Z 20008KT 14/02 A2997 RMK A01 T01420015  RH  043%=      5-min Rain = 0
KASR 240420Z 20008KT 14/02 A2997 RMK A01 T01400015  RH  043%=      5-min Rain = 0
KASR 240425Z 20007KT 14/02 A2996 RMK A01 T01380015  RH  044%=      5-min Rain = 0
KASR 240430Z 20007KT 14/01 A2996 RMK A01 T01380014  RH  044%=      5-min Rain = 0
KASR 240435Z 20007KT 14/02 A2997 RMK A01 T01370015  RH  044%=      5-min Rain = 0
KASR 240440Z 20007KT 13/02 A2997 RMK A01 T01340015  RH  045%=      5-min Rain = 0
KASR 240445Z 20007KT 13/02 A2997 RMK A01 T01330015  RH  045%=      5-min Rain = 0
KASR 240450Z 20008KT 13/02 A2997 RMK A01 T01320016  RH  046%=      5-min Rain = 0
KASR 240455Z 19009KT 13/02 A2997 RMK A01 T01310016  RH  046%=      5-min Rain = 0

Page generated in 0.0091 seconds.